createdAt,value
2022-08-29T00:01:33.068Z,61.40
2022-08-29T00:04:01.570Z,61.40
2022-08-29T00:06:29.875Z,61.60
2022-08-29T00:08:58.043Z,61.50
2022-08-29T00:11:26.105Z,61.40
2022-08-29T00:13:54.216Z,61.40
2022-08-29T00:16:23.722Z,61.50
2022-08-29T00:18:51.805Z,61.60
2022-08-29T00:21:19.902Z,61.60
2022-08-29T00:23:48.004Z,61.50
2022-08-29T00:26:32.045Z,61.40
2022-08-29T00:29:03.691Z,61.50
2022-08-29T00:31:40.704Z,61.60
2022-08-29T00:34:08.823Z,61.60
2022-08-29T00:36:37.783Z,61.40
2022-08-29T00:39:06.183Z,61.50
2022-08-29T00:41:37.466Z,61.50
2022-08-29T00:44:05.745Z,61.50
2022-08-29T00:46:47.754Z,61.40
2022-08-29T00:49:24.998Z,61.60
2022-08-29T00:51:53.251Z,61.30
2022-08-29T00:54:21.419Z,61.40
2022-08-29T00:56:49.506Z,61.40
2022-08-29T00:59:19.703Z,61.50
2022-08-29T01:01:49.297Z,61.40
2022-08-29T01:04:23.566Z,61.60
2022-08-29T01:06:52.492Z,61.50
2022-08-29T01:09:21.029Z,61.70
2022-08-29T01:12:06.471Z,61.40
2022-08-29T01:14:37.926Z,61.50
2022-08-29T01:17:07.985Z,61.50
2022-08-29T01:19:44.362Z,61.60
2022-08-29T01:22:44.793Z,61.40
2022-08-29T01:25:16.272Z,61.30
2022-08-29T01:27:47.063Z,61.30
2022-08-29T01:30:16.229Z,61.20
2022-08-29T01:32:44.314Z,61.40
2022-08-29T01:35:12.558Z,61.20
2022-08-29T01:37:44.170Z,61.30
2022-08-29T01:40:13.157Z,61.30
2022-08-29T01:42:42.723Z,61.30
2022-08-29T01:45:11.378Z,61.50
2022-08-29T01:47:40.063Z,61.30
2022-08-29T01:50:10.305Z,61.50
2022-08-29T01:52:38.441Z,61.50
2022-08-29T01:55:07.297Z,61.50
2022-08-29T01:57:35.605Z,61.50
2022-08-29T02:00:07.352Z,61.40
2022-08-29T02:02:35.544Z,61.20
2022-08-29T02:05:05.549Z,61.30
2022-08-29T02:07:33.626Z,61.20
2022-08-29T02:10:01.730Z,61.20
2022-08-29T02:12:29.892Z,61.60
2022-08-29T02:15:08.883Z,61.50
2022-08-29T02:17:37.013Z,61.20
2022-08-29T02:20:08.291Z,61.40
2022-08-29T02:22:36.607Z,61.40
2022-08-29T02:25:25.389Z,61.50
2022-08-29T02:27:53.500Z,61.30
2022-08-29T02:30:23.008Z,61.40
2022-08-29T02:32:51.127Z,61.20
2022-08-29T02:35:36.555Z,61.20
2022-08-29T02:38:06.067Z,61.70
2022-08-29T02:40:34.274Z,61.30
2022-08-29T02:43:02.496Z,61.40
2022-08-29T02:45:31.964Z,61.40
2022-08-29T02:48:00.180Z,61.30
2022-08-29T02:50:28.262Z,61.20
2022-08-29T02:52:56.573Z,61.50
2022-08-29T02:55:25.033Z,61.60
2022-08-29T02:57:53.568Z,61.50
2022-08-29T03:00:23.214Z,61.30
2022-08-29T03:02:52.730Z,61.60
2022-08-29T03:05:23.260Z,61.60
2022-08-29T03:07:52.306Z,61.70
2022-08-29T03:10:23.241Z,61.50
2022-08-29T03:12:54.382Z,61.60
2022-08-29T03:15:22.591Z,61.50
2022-08-29T03:17:52.121Z,61.70
2022-08-29T03:20:20.993Z,61.40
2022-08-29T03:22:49.240Z,61.40
2022-08-29T03:25:17.736Z,62.00
2022-08-29T03:27:45.867Z,61.70
2022-08-29T03:30:15.101Z,61.50
2022-08-29T03:32:46.277Z,61.40
2022-08-29T03:35:44.125Z,61.50
2022-08-29T03:38:13.667Z,62.00
2022-08-29T03:40:49.920Z,61.60
2022-08-29T03:43:21.753Z,61.30
2022-08-29T03:45:57.139Z,61.50
2022-08-29T03:48:25.274Z,61.70
2022-08-29T03:50:56.434Z,61.50
2022-08-29T03:53:26.635Z,61.60
2022-08-29T03:55:55.278Z,61.50
2022-08-29T03:58:23.381Z,61.50
2022-08-29T04:00:51.513Z,61.60
2022-08-29T04:03:20.300Z,61.70
2022-08-29T04:05:56.116Z,61.80
2022-08-29T04:08:40.871Z,61.60
2022-08-29T04:11:11.519Z,61.60
2022-08-29T04:13:39.661Z,61.80
2022-08-29T04:16:11.425Z,61.70
2022-08-29T04:18:39.557Z,61.30
2022-08-29T04:21:10.588Z,61.90
2022-08-29T04:23:40.419Z,61.70
2022-08-29T04:26:35.144Z,62.10
2022-08-29T04:29:02.789Z,62.00
2022-08-29T04:31:30.946Z,61.50
2022-08-29T04:33:59.093Z,62.00
2022-08-29T04:36:28.216Z,61.70
2022-08-29T04:39:00.765Z,61.70
2022-08-29T04:41:28.857Z,62.00
2022-08-29T04:43:57.012Z,61.60
2022-08-29T04:46:25.201Z,61.50
2022-08-29T04:48:53.727Z,61.70
2022-08-29T04:51:21.800Z,61.70
2022-08-29T04:53:50.852Z,61.80
2022-08-29T04:56:20.474Z,61.70
2022-08-29T04:58:50.552Z,61.70
2022-08-29T05:01:20.645Z,61.60
2022-08-29T05:03:49.278Z,61.50
2022-08-29T05:06:18.573Z,61.60
2022-08-29T05:08:59.003Z,61.80
2022-08-29T05:11:29.736Z,61.80
2022-08-29T05:13:57.845Z,61.50
2022-08-29T05:16:25.935Z,61.70
2022-08-29T05:18:54.035Z,62.00
2022-08-29T05:21:27.209Z,61.80
2022-08-29T05:23:56.543Z,61.70
2022-08-29T05:26:24.861Z,61.90
2022-08-29T05:28:54.348Z,61.80
2022-08-29T05:31:22.622Z,61.40
2022-08-29T05:33:51.977Z,62.20
2022-08-29T05:36:20.314Z,61.90
2022-08-29T05:38:48.419Z,62.20
2022-08-29T05:41:16.661Z,61.80
2022-08-29T05:43:44.753Z,62.10
2022-08-29T05:46:14.459Z,61.70
2022-08-29T05:48:48.530Z,61.80
2022-08-29T05:51:18.749Z,62.10
2022-08-29T05:53:46.904Z,61.70
2022-08-29T05:56:24.129Z,62.00
2022-08-29T05:58:52.211Z,61.80
2022-08-29T06:01:23.772Z,61.90
2022-08-29T06:03:54.432Z,62.10
2022-08-29T06:06:23.397Z,62.00
2022-08-29T06:08:52.049Z,62.20
2022-08-29T06:11:21.431Z,61.90
2022-08-29T06:13:49.552Z,62.30
2022-08-29T06:16:19.841Z,62.10
2022-08-29T06:18:49.414Z,62.60
2022-08-29T06:21:17.568Z,62.30
2022-08-29T06:23:46.282Z,62.20
2022-08-29T06:26:28.403Z,62.80
2022-08-29T06:28:56.557Z,62.40
2022-08-29T06:31:29.357Z,63.00
2022-08-29T06:33:59.757Z,62.60
2022-08-29T06:36:28.121Z,62.90
2022-08-29T06:38:56.805Z,62.50
2022-08-29T06:41:25.078Z,62.60
2022-08-29T06:43:53.703Z,62.20
2022-08-29T06:46:23.617Z,62.70
2022-08-29T06:48:52.157Z,62.30
2022-08-29T06:51:21.662Z,62.30
2022-08-29T06:53:49.748Z,62.30
2022-08-29T06:56:17.985Z,62.10
2022-08-29T06:58:47.154Z,62.20
2022-08-29T07:01:19.834Z,62.50
2022-08-29T07:03:48.183Z,62.50
2022-08-29T07:06:17.239Z,62.60
2022-08-29T07:08:55.409Z,62.80
2022-08-29T07:11:24.604Z,62.60
2022-08-29T07:13:52.680Z,63.00
2022-08-29T07:16:20.832Z,62.40
2022-08-29T07:18:51.190Z,62.60
2022-08-29T07:21:21.194Z,62.40
2022-08-29T07:23:50.742Z,62.60
2022-08-29T07:26:19.792Z,62.50
2022-08-29T07:28:47.990Z,62.50
2022-08-29T07:31:16.190Z,62.60
2022-08-29T07:33:44.296Z,62.60
2022-08-29T07:36:15.084Z,62.10
2022-08-29T07:38:43.174Z,62.60
2022-08-29T07:41:14.389Z,62.20
2022-08-29T07:43:42.684Z,62.50
2022-08-29T07:46:11.435Z,62.70
2022-08-29T07:48:39.715Z,62.10
2022-08-29T07:51:10.676Z,62.40
2022-08-29T07:53:38.903Z,62.40
2022-08-29T07:56:10.828Z,62.70
2022-08-29T07:58:40.425Z,62.50
2022-08-29T08:01:12.575Z,62.70
2022-08-29T08:03:48.958Z,62.70
2022-08-29T08:06:17.708Z,63.40
2022-08-29T08:08:45.848Z,63.00
2022-08-29T08:11:14.008Z,63.10
2022-08-29T08:13:43.513Z,62.80
2022-08-29T08:16:14.803Z,63.10
2022-08-29T08:18:43.179Z,62.80
2022-08-29T08:21:11.424Z,63.00
2022-08-29T08:23:39.937Z,63.10
2022-08-29T08:26:08.226Z,62.90
2022-08-29T08:28:50.187Z,62.60
2022-08-29T08:31:19.870Z,63.10
2022-08-29T08:33:48.185Z,62.80
2022-08-29T08:36:17.392Z,62.60
2022-08-29T08:38:45.647Z,62.80
2022-08-29T08:41:32.422Z,62.30
2022-08-29T08:44:02.362Z,62.50
2022-08-29T08:46:36.214Z,62.60
2022-08-29T08:49:05.105Z,62.60
2022-08-29T08:51:36.084Z,62.90
2022-08-29T08:54:06.668Z,62.70
2022-08-29T08:56:36.508Z,62.90
2022-08-29T08:59:07.973Z,63.50
2022-08-29T09:01:43.372Z,63.00
2022-08-29T09:04:35.542Z,62.90
2022-08-29T09:07:22.419Z,63.00
2022-08-29T09:09:58.668Z,63.00
2022-08-29T09:12:32.889Z,63.40
2022-08-29T09:15:05.503Z,62.90
2022-08-29T09:17:37.158Z,62.90
2022-08-29T09:20:06.465Z,63.00
2022-08-29T09:22:34.663Z,63.40
2022-08-29T09:25:10.496Z,63.10
2022-08-29T09:27:38.637Z,62.90
2022-08-29T09:30:10.049Z,63.10
2022-08-29T09:32:53.825Z,62.90
2022-08-29T09:35:24.490Z,62.80
2022-08-29T09:38:00.351Z,63.00
2022-08-29T09:40:47.168Z,62.80
2022-08-29T09:43:24.567Z,62.90
2022-08-29T09:46:13.447Z,62.80
2022-08-29T09:48:43.483Z,62.80
2022-08-29T09:51:13.708Z,62.60
2022-08-29T09:53:41.934Z,62.80
2022-08-29T09:56:13.103Z,62.70
2022-08-29T09:58:41.755Z,62.60
2022-08-29T10:01:11.676Z,62.70
2022-08-29T10:03:41.869Z,62.70
2022-08-29T10:06:15.155Z,62.60
2022-08-29T10:08:44.024Z,62.70
2022-08-29T10:11:21.091Z,62.90
2022-08-29T10:13:52.539Z,62.70
2022-08-29T10:16:35.919Z,62.60
2022-08-29T10:19:05.133Z,62.70
2022-08-29T10:21:41.187Z,62.70
2022-08-29T10:24:19.714Z,62.70
2022-08-29T10:26:55.436Z,62.70
2022-08-29T10:29:31.743Z,62.70
2022-08-29T10:32:05.176Z,62.70
2022-08-29T10:34:40.231Z,62.80
2022-08-29T10:37:12.860Z,62.80
2022-08-29T10:39:44.413Z,62.80
2022-08-29T10:42:16.122Z,62.80
2022-08-29T10:44:51.107Z,62.70
2022-08-29T10:47:26.999Z,62.70
2022-08-29T10:50:07.741Z,62.80
2022-08-29T10:52:43.145Z,62.70
2022-08-29T10:55:13.501Z,62.80
2022-08-29T10:57:47.157Z,62.80
2022-08-29T11:00:17.037Z,62.70
2022-08-29T11:02:47.886Z,62.80
2022-08-29T11:05:20.284Z,62.70
2022-08-29T11:07:52.733Z,62.80
2022-08-29T11:10:22.296Z,62.90
2022-08-29T11:12:53.740Z,62.80
2022-08-29T11:15:24.869Z,62.80
2022-08-29T11:17:58.170Z,63.00
2022-08-29T11:20:30.553Z,62.90
2022-08-29T11:23:03.068Z,63.00
2022-08-29T11:25:32.770Z,62.90
2022-08-29T11:28:05.058Z,62.90
2022-08-29T11:30:40.944Z,62.90
2022-08-29T11:33:16.547Z,62.90
2022-08-29T11:35:48.901Z,62.90
2022-08-29T11:39:02.408Z,62.90
2022-08-29T11:41:31.095Z,63.00
2022-08-29T11:44:22.368Z,63.00
2022-08-29T11:46:53.572Z,62.90
2022-08-29T11:49:37.237Z,62.90
2022-08-29T11:52:22.455Z,62.90
2022-08-29T11:55:16.950Z,62.90
2022-08-29T11:57:49.854Z,63.00
2022-08-29T12:00:53.268Z,63.00
2022-08-29T12:03:48.838Z,63.00
2022-08-29T12:06:39.038Z,63.00
2022-08-29T12:09:32.819Z,63.00
2022-08-29T12:12:33.238Z,63.00
2022-08-29T12:15:01.540Z,63.00
2022-08-29T12:18:01.293Z,63.00
2022-08-29T12:20:46.641Z,63.10
2022-08-29T12:23:28.014Z,63.00
2022-08-29T12:26:16.196Z,63.00
2022-08-29T12:28:49.946Z,63.00
2022-08-29T12:31:51.756Z,63.10
2022-08-29T12:34:50.034Z,63.10
2022-08-29T12:37:40.683Z,63.20
2022-08-29T12:40:39.566Z,63.10
2022-08-29T12:43:27.077Z,63.20
2022-08-29T12:45:56.589Z,63.10
2022-08-29T12:48:27.062Z,63.10
2022-08-29T12:50:55.157Z,63.20
2022-08-29T12:53:24.402Z,63.30
2022-08-29T12:56:01.404Z,63.20
2022-08-29T12:58:38.644Z,63.30
2022-08-29T13:01:09.519Z,63.30
2022-08-29T13:03:37.673Z,63.30
2022-08-29T13:06:08.347Z,63.30
2022-08-29T13:08:38.085Z,63.30
2022-08-29T13:11:07.214Z,63.30
2022-08-29T13:13:35.740Z,63.30
2022-08-29T13:16:05.250Z,63.30
2022-08-29T13:18:44.544Z,63.30
2022-08-29T13:21:24.156Z,63.30
2022-08-29T13:24:00.200Z,63.30
2022-08-29T13:26:32.297Z,63.30
2022-08-29T13:29:04.415Z,63.30
2022-08-29T13:31:36.298Z,63.40
2022-08-29T13:34:20.723Z,63.40
2022-08-29T13:37:00.077Z,63.40
2022-08-29T13:39:30.445Z,63.40
2022-08-29T13:42:29.089Z,63.40
2022-08-29T13:45:02.938Z,63.40
2022-08-29T13:47:31.781Z,63.40
2022-08-29T13:50:02.243Z,63.50
2022-08-29T13:52:31.580Z,63.50
2022-08-29T13:55:00.198Z,63.50
2022-08-29T13:57:29.297Z,63.50
2022-08-29T13:59:57.530Z,63.50
2022-08-29T14:02:26.050Z,63.50
2022-08-29T14:04:54.500Z,63.50
2022-08-29T14:07:25.377Z,63.50
2022-08-29T14:09:53.505Z,63.60
2022-08-29T14:12:33.458Z,63.50
2022-08-29T14:15:06.719Z,63.60
2022-08-29T14:17:37.408Z,63.60
2022-08-29T14:20:06.975Z,63.60
2022-08-29T14:22:36.493Z,63.60
2022-08-29T14:25:11.592Z,63.60
2022-08-29T14:27:39.849Z,63.60
2022-08-29T14:30:10.512Z,63.60
2022-08-29T14:32:38.665Z,63.60
2022-08-29T14:35:07.551Z,63.60
2022-08-29T14:37:37.008Z,63.60
2022-08-29T14:40:05.905Z,63.60
2022-08-29T14:42:34.044Z,63.60
2022-08-29T14:45:02.096Z,63.60
2022-08-29T14:47:30.212Z,63.60
2022-08-29T14:49:58.308Z,63.60
2022-08-29T14:52:26.384Z,63.60
2022-08-29T14:54:58.765Z,63.60
2022-08-29T14:57:27.083Z,63.60
2022-08-29T14:59:55.191Z,63.60
2022-08-29T15:02:23.350Z,63.60
2022-08-29T15:05:03.383Z,63.60
2022-08-29T15:07:34.149Z,63.60
2022-08-29T15:10:03.681Z,63.60
2022-08-29T15:12:31.756Z,63.60
2022-08-29T15:14:59.932Z,63.60
2022-08-29T15:17:28.003Z,63.60
2022-08-29T15:22:44.168Z,63.70
2022-08-29T15:25:13.665Z,63.70
2022-08-29T15:27:41.888Z,63.70
2022-08-29T15:30:11.145Z,63.80
2022-08-29T15:32:39.511Z,63.70
2022-08-29T15:35:10.274Z,63.80
2022-08-29T15:37:43.437Z,63.80
2022-08-29T15:40:13.958Z,63.80
2022-08-29T15:42:42.157Z,63.80
2022-08-29T15:45:13.098Z,63.80
2022-08-29T15:47:46.088Z,63.80
2022-08-29T15:50:30.567Z,63.80
2022-08-29T15:53:04.620Z,63.80
2022-08-29T15:55:34.123Z,63.80
2022-08-29T15:58:02.215Z,63.80
2022-08-29T16:00:31.248Z,63.80
2022-08-29T16:03:03.450Z,63.70
2022-08-29T16:05:32.151Z,63.80
2022-08-29T16:08:00.316Z,63.80
2022-08-29T16:10:28.418Z,63.80
2022-08-29T16:12:58.296Z,63.80
2022-08-29T16:15:27.805Z,63.80
2022-08-29T16:17:55.949Z,63.80
2022-08-29T16:20:24.071Z,63.80
2022-08-29T16:22:52.524Z,63.90
2022-08-29T16:25:20.745Z,63.80
2022-08-29T16:27:48.835Z,63.80
2022-08-29T16:30:18.855Z,63.80
2022-08-29T16:32:47.013Z,63.90
2022-08-29T16:35:16.808Z,63.80
2022-08-29T16:37:44.901Z,63.80
2022-08-29T16:40:14.587Z,63.80
2022-08-29T16:42:43.325Z,63.80
2022-08-29T16:45:25.369Z,63.90
2022-08-29T16:47:57.417Z,63.90
2022-08-29T16:50:26.272Z,63.90
2022-08-29T16:52:54.483Z,63.90
2022-08-29T16:55:22.743Z,63.90
2022-08-29T16:58:04.722Z,63.90
2022-08-29T17:00:34.287Z,63.90
2022-08-29T17:03:02.459Z,63.90
2022-08-29T17:05:30.678Z,63.90
2022-08-29T17:07:57.613Z,63.90
2022-08-29T17:10:24.564Z,64.00
2022-08-29T17:12:51.519Z,64.00
2022-08-29T17:15:18.518Z,64.00
2022-08-29T17:17:48.484Z,64.00
2022-08-29T17:20:16.543Z,64.00
2022-08-29T17:22:44.680Z,64.00
2022-08-29T17:25:12.795Z,64.00
2022-08-29T17:27:42.925Z,64.00
2022-08-29T17:30:21.608Z,64.10
2022-08-29T17:32:51.179Z,64.10
2022-08-29T17:35:19.399Z,64.10
2022-08-29T17:37:47.821Z,64.10
2022-08-29T17:40:16.951Z,64.10
2022-08-29T17:42:49.273Z,64.10
2022-08-29T17:45:17.402Z,64.20
2022-08-29T17:47:45.469Z,64.20
2022-08-29T17:50:14.942Z,64.20
2022-08-29T17:52:43.041Z,64.20
2022-08-29T17:55:11.116Z,64.20
2022-08-29T17:57:39.209Z,64.30
2022-08-29T18:00:16.825Z,64.30
2022-08-29T18:02:45.393Z,64.30
2022-08-29T18:05:14.913Z,64.40
2022-08-29T18:07:43.626Z,64.40
2022-08-29T18:10:13.228Z,64.40
2022-08-29T18:12:41.569Z,64.40
2022-08-29T18:15:11.576Z,64.40
2022-08-29T18:17:48.640Z,64.40
2022-08-29T18:20:22.005Z,64.40
2022-08-29T18:22:50.540Z,64.40
2022-08-29T18:25:22.657Z,64.40
2022-08-29T18:27:51.429Z,64.40
2022-08-29T18:30:20.429Z,64.30
2022-08-29T18:32:48.915Z,64.40
2022-08-29T18:35:18.857Z,64.40
2022-08-29T18:37:46.947Z,64.40
2022-08-29T18:40:15.174Z,64.40
2022-08-29T18:42:43.326Z,64.40
2022-08-29T18:45:12.413Z,64.40
2022-08-29T18:47:40.531Z,64.40
2022-08-29T18:50:26.880Z,64.40
2022-08-29T18:52:56.670Z,64.40
2022-08-29T18:55:27.890Z,64.40
2022-08-29T18:57:56.152Z,64.40
2022-08-29T19:00:25.298Z,64.40
2022-08-29T19:02:53.543Z,64.40
2022-08-29T19:05:21.726Z,64.40
2022-08-29T19:07:49.835Z,64.40
2022-08-29T19:10:19.777Z,64.40
2022-08-29T19:12:53.779Z,64.40
2022-08-29T19:15:22.461Z,64.40
2022-08-29T19:17:50.584Z,64.40
2022-08-29T19:20:46.021Z,64.40
2022-08-29T19:23:14.184Z,64.30
2022-08-29T19:25:43.687Z,64.30
2022-08-29T19:28:11.960Z,64.40
2022-08-29T19:30:54.049Z,64.40
2022-08-29T19:33:22.134Z,64.30
2022-08-29T19:35:51.535Z,64.30
2022-08-29T19:38:19.763Z,64.30
2022-08-29T19:40:52.378Z,64.30
2022-08-29T19:43:20.777Z,64.30
2022-08-29T19:45:48.900Z,64.30
2022-08-29T19:48:20.523Z,64.30
2022-08-29T19:50:50.008Z,64.30
2022-08-29T19:53:24.699Z,64.30
2022-08-29T19:55:56.714Z,64.30
2022-08-29T19:58:28.771Z,64.30
2022-08-29T20:01:00.111Z,64.30
2022-08-29T20:03:28.910Z,64.30
2022-08-29T20:05:57.265Z,64.20
2022-08-29T20:08:25.470Z,64.20
2022-08-29T20:10:53.666Z,64.20
2022-08-29T20:13:23.139Z,64.20
2022-08-29T20:15:52.342Z,64.20
2022-08-29T20:18:21.322Z,64.20
2022-08-29T20:20:52.297Z,64.20
2022-08-29T20:23:20.400Z,64.20
2022-08-29T20:25:48.557Z,64.20
2022-08-29T20:28:16.808Z,64.20
2022-08-29T20:30:46.384Z,64.20
2022-08-29T20:33:18.013Z,64.20
2022-08-29T20:36:03.707Z,64.20
2022-08-29T20:38:33.339Z,64.10
2022-08-29T20:41:01.439Z,64.10
2022-08-29T20:43:30.107Z,64.20
2022-08-29T20:46:00.140Z,64.10
2022-08-29T20:48:31.078Z,64.10
2022-08-29T20:51:01.353Z,64.10
2022-08-29T20:53:32.399Z,64.10
2022-08-29T20:56:04.046Z,64.10
2022-08-29T20:58:32.294Z,64.10
2022-08-29T21:01:01.893Z,64.10
2022-08-29T21:03:49.525Z,64.10
2022-08-29T21:06:19.506Z,64.10
2022-08-29T21:08:53.396Z,64.10
2022-08-29T21:11:21.542Z,64.10
2022-08-29T21:13:53.136Z,64.10
2022-08-29T21:16:23.157Z,64.10
2022-08-29T21:18:53.229Z,64.10
2022-08-29T21:21:24.657Z,64.00
2022-08-29T21:23:53.343Z,64.00
2022-08-29T21:26:21.456Z,64.00
2022-08-29T21:28:49.533Z,64.00
2022-08-29T21:31:18.480Z,64.00
2022-08-29T21:33:48.133Z,64.00
2022-08-29T21:36:18.725Z,64.10
2022-08-29T21:38:46.826Z,64.10
2022-08-29T21:41:15.373Z,64.10
2022-08-29T21:43:51.806Z,64.10
2022-08-29T21:46:20.899Z,64.10
2022-08-29T21:48:56.407Z,64.10
2022-08-29T21:51:24.961Z,64.10
2022-08-29T21:53:54.027Z,64.10
2022-08-29T21:56:22.130Z,64.10
2022-08-29T21:58:53.678Z,64.10
2022-08-29T22:01:22.469Z,64.10
2022-08-29T22:03:52.032Z,64.10
2022-08-29T22:06:20.119Z,64.10
2022-08-29T22:08:48.599Z,64.10
2022-08-29T22:11:19.327Z,64.20
2022-08-29T22:13:47.418Z,64.20
2022-08-29T22:16:32.987Z,64.20
2022-08-29T22:19:04.346Z,64.30
2022-08-29T22:21:33.846Z,64.20
2022-08-29T22:24:01.917Z,64.30
2022-08-29T22:26:30.292Z,64.40
2022-08-29T22:28:58.581Z,64.30
2022-08-29T22:31:26.735Z,64.40
2022-08-29T22:33:54.902Z,64.60
2022-08-29T22:36:26.811Z,64.30
2022-08-29T22:38:56.363Z,64.40
2022-08-29T22:41:24.921Z,64.40
2022-08-29T22:44:16.610Z,64.50
2022-08-29T22:46:43.397Z,64.40
2022-08-29T22:49:11.584Z,64.40
2022-08-29T22:51:41.072Z,64.50
2022-08-29T22:54:26.392Z,64.50
2022-08-29T22:56:54.996Z,64.40
2022-08-29T22:59:23.114Z,64.60
2022-08-29T23:01:51.224Z,64.50
2022-08-29T23:04:19.408Z,64.50
2022-08-29T23:06:48.846Z,64.50
2022-08-29T23:09:16.994Z,64.60
2022-08-29T23:11:45.073Z,64.60
2022-08-29T23:14:13.149Z,64.60
2022-08-29T23:16:44.061Z,64.80
2022-08-29T23:19:14.490Z,64.60
2022-08-29T23:21:44.453Z,64.70
2022-08-29T23:24:13.922Z,64.80
2022-08-29T23:26:42.875Z,64.90
2022-08-29T23:29:10.980Z,64.70
2022-08-29T23:31:39.083Z,64.80
2022-08-29T23:34:07.793Z,64.80
2022-08-29T23:36:36.408Z,64.70
2022-08-29T23:39:05.795Z,64.70
2022-08-29T23:41:35.378Z,64.80
2022-08-29T23:44:03.718Z,64.80
2022-08-29T23:46:31.975Z,64.70
2022-08-29T23:49:00.095Z,64.80
2022-08-29T23:51:28.156Z,64.80
2022-08-29T23:53:57.500Z,65.10
2022-08-29T23:56:25.674Z,65.00
2022-08-29T23:58:56.046Z,65.10
